Terminal Aerodrome Forecast
Issued by NWS

Home | Current Version | Previous Version | Text Only | Print | Product List | Glossary On
Versions: 1 2 3 4 5 6 7 8 9 10 11 12 13 14 15 16 17 18 19 20 21 22 23 24 25 26 27 28 29 30 31 32
000
FTUS42 KCAE 190926 AAA
TAFOGB
TAF AMD
KOGB 190926Z 1909/2006 23008G15KT P6SM SCT050 WS015/24040KT
     FM191400 27016G28KT P6SM SCT050
     FM192100 30014G24KT P6SM SKC
     FM200100 01010KT P6SM SKC WS015/02030KT=

USA.gov is the U.S. government's official web portal to all federal, state and local government web resources and services.